sensor_id;sensor_type;location;lat;lon;timestamp;pressure;altitude;pressure_sealevel;temperature;humidity
71716;BME280;59568;52.128;5.434;2022-08-19T00:01:59;101499.66;;;17.46;78.63
71716;BME280;59568;52.128;5.434;2022-08-19T00:04:29;101512.41;;;17.44;77.96
71716;BME280;59568;52.128;5.434;2022-08-19T00:06:57;101508.84;;;17.40;78.44
71716;BME280;59568;52.128;5.434;2022-08-19T00:09:24;101514.13;;;17.40;78.36
71716;BME280;59568;52.128;5.434;2022-08-19T00:11:52;101511.34;;;17.36;78.03
71716;BME280;59568;52.128;5.434;2022-08-19T00:14:22;101513.19;;;17.36;78.13
71716;BME280;59568;52.128;5.434;2022-08-19T00:16:51;101510.75;;;17.31;78.31
71716;BME280;59568;52.128;5.434;2022-08-19T00:19:21;101519.28;;;17.28;78.40
71716;BME280;59568;52.128;5.434;2022-08-19T00:21:48;101516.19;;;17.26;78.23
71716;BME280;59568;52.128;5.434;2022-08-19T00:24:15;101516.19;;;17.26;78.10
71716;BME280;59568;52.128;5.434;2022-08-19T00:26:43;101505.78;;;17.21;78.16
71716;BME280;59568;52.128;5.434;2022-08-19T00:29:12;101512.16;;;17.20;78.58
71716;BME280;59568;52.128;5.434;2022-08-19T00:31:39;101504.41;;;17.14;78.90
71716;BME280;59568;52.128;5.434;2022-08-19T00:34:08;101505.47;;;17.13;78.41
71716;BME280;59568;52.128;5.434;2022-08-19T00:36:34;101512.63;;;17.13;78.38
71716;BME280;59568;52.128;5.434;2022-08-19T00:39:01;101511.41;;;17.10;78.60
71716;BME280;59568;52.128;5.434;2022-08-19T00:41:28;101510.94;;;17.08;78.46
71716;BME280;59568;52.128;5.434;2022-08-19T00:46:29;101502.84;;;17.05;78.81
71716;BME280;59568;52.128;5.434;2022-08-19T00:48:56;101511.09;;;17.03;78.79
71716;BME280;59568;52.128;5.434;2022-08-19T00:51:25;101507.53;;;16.99;78.93
71716;BME280;59568;52.128;5.434;2022-08-19T00:53:55;101502.84;;;16.96;78.97
71716;BME280;59568;52.128;5.434;2022-08-19T00:56:23;101500.53;;;16.94;78.80
71716;BME280;59568;52.128;5.434;2022-08-19T00:58:50;101505.03;;;16.94;78.94
71716;BME280;59568;52.128;5.434;2022-08-19T01:01:16;101504.56;;;16.92;79.26
71716;BME280;59568;52.128;5.434;2022-08-19T01:03:43;101501.47;;;16.90;79.17
71716;BME280;59568;52.128;5.434;2022-08-19T01:06:25;101503.63;;;16.88;79.37
71716;BME280;59568;52.128;5.434;2022-08-19T01:08:52;101505.34;;;16.84;79.17
71716;BME280;59568;52.128;5.434;2022-08-19T01:11:19;101512.31;;;16.80;79.27
71716;BME280;59568;52.128;5.434;2022-08-19T01:13:46;101504.38;;;16.80;79.13
71716;BME280;59568;52.128;5.434;2022-08-19T01:16:17;101500.22;;;16.78;79.06
71716;BME280;59568;52.128;5.434;2022-08-19T01:18:45;101508.91;;;16.79;79.17
71716;BME280;59568;52.128;5.434;2022-08-19T01:21:20;101504.56;;;16.74;79.13
71716;BME280;59568;52.128;5.434;2022-08-19T01:23:48;101501.44;;;16.72;79.25
71716;BME280;59568;52.128;5.434;2022-08-19T01:26:18;101508.09;;;16.70;78.96
71716;BME280;59568;52.128;5.434;2022-08-19T01:28:48;101502.69;;;16.66;79.09
71716;BME280;59568;52.128;5.434;2022-08-19T01:31:21;101504.06;;;16.64;79.38
71716;BME280;59568;52.128;5.434;2022-08-19T01:33:54;101504.69;;;16.61;79.57
71716;BME280;59568;52.128;5.434;2022-08-19T01:38:56;101514.63;;;16.55;79.75
71716;BME280;59568;52.128;5.434;2022-08-19T01:41:22;101506.25;;;16.53;79.33
71716;BME280;59568;52.128;5.434;2022-08-19T01:43:51;101517.41;;;16.50;79.23
71716;BME280;59568;52.128;5.434;2022-08-19T01:46:38;101501.91;;;16.48;79.25
71716;BME280;59568;52.128;5.434;2022-08-19T01:49:06;101497.41;;;16.49;78.90
71716;BME280;59568;52.128;5.434;2022-08-19T01:51:34;101507.78;;;16.45;79.11
71716;BME280;59568;52.128;5.434;2022-08-19T01:54:07;101499.41;;;16.43;79.27
71716;BME280;59568;52.128;5.434;2022-08-19T01:56:34;101501.56;;;16.41;79.14
71716;BME280;59568;52.128;5.434;2022-08-19T01:59:04;101507.16;;;16.40;78.95
71716;BME280;59568;52.128;5.434;2022-08-19T02:01:32;101511.19;;;16.37;78.94
71716;BME280;59568;52.128;5.434;2022-08-19T02:04:00;101515.69;;;16.36;79.02
71716;BME280;59568;52.128;5.434;2022-08-19T02:06:27;101514.75;;;16.32;79.12
71716;BME280;59568;52.128;5.434;2022-08-19T02:08:55;101508.53;;;16.28;79.46
71716;BME280;59568;52.128;5.434;2022-08-19T02:11:27;101519.69;;;16.25;79.19
71716;BME280;59568;52.128;5.434;2022-08-19T02:13:54;101519.22;;;16.23;79.33
71716;BME280;59568;52.128;5.434;2022-08-19T02:16:21;101520.63;;;16.21;79.37
71716;BME280;59568;52.128;5.434;2022-08-19T02:18:48;101517.81;;;16.17;79.44
71716;BME280;59568;52.128;5.434;2022-08-19T02:21:20;101512.53;;;16.17;79.13
71716;BME280;59568;52.128;5.434;2022-08-19T02:23:48;101513.16;;;16.14;79.03
71716;BME280;59568;52.128;5.434;2022-08-19T02:26:15;101508.97;;;16.13;79.33
71716;BME280;59568;52.128;5.434;2022-08-19T02:28:41;101515.91;;;16.09;79.29
71716;BME280;59568;52.128;5.434;2022-08-19T02:31:14;101514.38;;;16.08;79.61
71716;BME280;59568;52.128;5.434;2022-08-19T02:33:42;101526.00;;;16.07;79.17
71716;BME280;59568;52.128;5.434;2022-08-19T02:36:10;101524.75;;;16.04;79.24
71716;BME280;59568;52.128;5.434;2022-08-19T02:38:37;101528.00;;;16.01;79.05
71716;BME280;59568;52.128;5.434;2022-08-19T02:41:08;101533.56;;;16.00;79.12
71716;BME280;59568;52.128;5.434;2022-08-19T02:43:37;101534.66;;;15.98;79.56
71716;BME280;59568;52.128;5.434;2022-08-19T02:46:29;101529.69;;;15.97;79.58
71716;BME280;59568;52.128;5.434;2022-08-19T02:49:00;101533.41;;;15.96;80.02
71716;BME280;59568;52.128;5.434;2022-08-19T02:51:32;101529.97;;;15.95;79.47
71716;BME280;59568;52.128;5.434;2022-08-19T02:53:59;101529.50;;;15.93;79.83
71716;BME280;59568;52.128;5.434;2022-08-19T02:56:26;101529.50;;;15.93;79.43
71716;BME280;59568;52.128;5.434;2022-08-19T02:58:54;101527.97;;;15.92;79.54
71716;BME280;59568;52.128;5.434;2022-08-19T03:01:24;101533.53;;;15.91;79.39
71716;BME280;59568;52.128;5.434;2022-08-19T03:03:52;101534.94;;;15.88;79.50
71716;BME280;59568;52.128;5.434;2022-08-19T03:06:20;101534.44;;;15.86;79.92
71716;BME280;59568;52.128;5.434;2022-08-19T03:08:47;101533.97;;;15.84;80.07
71716;BME280;59568;52.128;5.434;2022-08-19T03:13:44;101529.78;;;15.83;79.53
71716;BME280;59568;52.128;5.434;2022-08-19T03:16:12;101523.25;;;15.81;79.95
71716;BME280;59568;52.128;5.434;2022-08-19T03:18:38;101522.78;;;15.78;79.81
71716;BME280;59568;52.128;5.434;2022-08-19T03:21:06;101514.22;;;15.73;80.08
71716;BME280;59568;52.128;5.434;2022-08-19T03:23:37;101518.53;;;15.69;80.18
71716;BME280;59568;52.128;5.434;2022-08-19T03:26:05;101518.06;;;15.67;80.26
71716;BME280;59568;52.128;5.434;2022-08-19T03:28:45;101511.72;;;15.68;80.44
71716;BME280;59568;52.128;5.434;2022-08-19T03:31:25;101518.53;;;15.69;80.41
71716;BME280;59568;52.128;5.434;2022-08-19T03:34:18;101512.59;;;15.63;80.54
71716;BME280;59568;52.128;5.434;2022-08-19T03:36:46;101514.75;;;15.61;81.13
71716;BME280;59568;52.128;5.434;2022-08-19T03:39:13;101512.44;;;15.60;81.06
71716;BME280;59568;52.128;5.434;2022-08-19T03:41:42;101513.69;;;15.62;80.49
71716;BME280;59568;52.128;5.434;2022-08-19T03:44:14;101519.75;;;15.63;80.24
71716;BME280;59568;52.128;5.434;2022-08-19T03:46:45;101518.97;;;15.62;80.25
71716;BME280;59568;52.128;5.434;2022-08-19T03:49:12;101518.78;;;15.58;80.23
71716;BME280;59568;52.128;5.434;2022-08-19T03:51:41;101525.91;;;15.58;80.52
71716;BME280;59568;52.128;5.434;2022-08-19T03:54:10;101510.72;;;15.55;80.30
71716;BME280;59568;52.128;5.434;2022-08-19T03:56:39;101512.88;;;15.53;80.54
71716;BME280;59568;52.128;5.434;2022-08-19T03:59:10;101510.06;;;15.49;80.80
71716;BME280;59568;52.128;5.434;2022-08-19T04:01:37;101515.94;;;15.46;80.46
71716;BME280;59568;52.128;5.434;2022-08-19T04:04:03;101512.53;;;15.46;80.12
71716;BME280;59568;52.128;5.434;2022-08-19T04:06:35;101518.09;;;15.44;80.30
71716;BME280;59568;52.128;5.434;2022-08-19T04:09:08;101510.47;;;15.43;80.12
71716;BME280;59568;52.128;5.434;2022-08-19T04:11:44;101511.25;;;15.43;80.11
71716;BME280;59568;52.128;5.434;2022-08-19T04:14:15;101492.34;;;15.41;80.35
71716;BME280;59568;52.128;5.434;2022-08-19T04:16:43;101497.03;;;15.44;80.34
71716;BME280;59568;52.128;5.434;2022-08-19T04:19:11;101496.41;;;15.47;80.83
71716;BME280;59568;52.128;5.434;2022-08-19T04:21:39;101495.16;;;15.45;80.45
71716;BME280;59568;52.128;5.434;2022-08-19T04:24:06;101503.06;;;15.45;80.57
71716;BME280;59568;52.128;5.434;2022-08-19T04:26:35;101501.53;;;15.44;80.42
71716;BME280;59568;52.128;5.434;2022-08-19T04:29:06;101498.09;;;15.43;80.52
71716;BME280;59568;52.128;5.434;2022-08-19T04:31:37;101501.94;;;15.37;80.72
71716;BME280;59568;52.128;5.434;2022-08-19T04:34:06;101496.66;;;15.37;80.59
71716;BME280;59568;52.128;5.434;2022-08-19T04:36:35;101500.97;;;15.33;80.42
71716;BME280;59568;52.128;5.434;2022-08-19T04:39:12;101500.50;;;15.31;80.72
71716;BME280;59568;52.128;5.434;2022-08-19T04:41:39;101494.16;;;15.32;80.76
71716;BME280;59568;52.128;5.434;2022-08-19T04:44:24;101497.88;;;15.31;80.73
71716;BME280;59568;52.128;5.434;2022-08-19T04:46:52;101506.38;;;15.28;80.98
71716;BME280;59568;52.128;5.434;2022-08-19T04:49:20;101492.25;;;15.24;81.23
71716;BME280;59568;52.128;5.434;2022-08-19T04:51:49;101500.44;;;15.22;81.38
71716;BME280;59568;52.128;5.434;2022-08-19T04:54:18;101492.25;;;15.24;81.90
71716;BME280;59568;52.128;5.434;2022-08-19T04:57:06;101499.06;;;15.25;81.53
71716;BME280;59568;52.128;5.434;2022-08-19T04:59:33;101496.44;;;15.25;81.20
71716;BME280;59568;52.128;5.434;2022-08-19T05:02:00;101500.03;;;15.29;80.86
71716;BME280;59568;52.128;5.434;2022-08-19T05:04:26;101499.44;;;15.32;81.18
71716;BME280;59568;52.128;5.434;2022-08-19T05:06:59;101498.34;;;15.33;80.80
71716;BME280;59568;52.128;5.434;2022-08-19T05:09:28;101505.19;;;15.34;81.09
71716;BME280;59568;52.128;5.434;2022-08-19T05:12:15;101518.34;;;15.34;81.18
71716;BME280;59568;52.128;5.434;2022-08-19T05:14:42;101511.97;;;15.35;81.39
71716;BME280;59568;52.128;5.434;2022-08-19T05:17:09;101521.44;;;15.36;81.12
71716;BME280;59568;52.128;5.434;2022-08-19T05:19:56;101516.19;;;15.36;81.24
71716;BME280;59568;52.128;5.434;2022-08-19T05:22:42;101520.84;;;15.39;81.21
71716;BME280;59568;52.128;5.434;2022-08-19T05:25:14;101518.09;;;15.44;81.01
71716;BME280;59568;52.128;5.434;2022-08-19T05:27:41;101521.97;;;15.47;80.66
71716;BME280;59568;52.128;5.434;2022-08-19T05:30:09;101514.44;;;15.54;80.84
71716;BME280;59568;52.128;5.434;2022-08-19T05:32:36;101523.28;;;15.58;81.10
71716;BME280;59568;52.128;5.434;2022-08-19T05:35:04;101525.00;;;15.63;80.72
71716;BME280;59568;52.128;5.434;2022-08-19T05:37:30;101526.72;;;15.67;80.36
71716;BME280;59568;52.128;5.434;2022-08-19T05:39:57;101523.19;;;15.72;79.67
71716;BME280;59568;52.128;5.434;2022-08-19T05:42:23;101522.78;;;15.78;79.44
71716;BME280;59568;52.128;5.434;2022-08-19T05:44:50;101525.31;;;15.84;79.76
71716;BME280;59568;52.128;5.434;2022-08-19T05:47:18;101528.56;;;15.89;79.64
71716;BME280;59568;52.128;5.434;2022-08-19T05:49:47;101537.59;;;15.97;79.38
71716;BME280;59568;52.128;5.434;2022-08-19T05:52:15;101531.75;;;16.09;79.47
71716;BME280;59568;52.128;5.434;2022-08-19T05:54:45;101528.66;;;16.15;79.32
71716;BME280;59568;52.128;5.434;2022-08-19T05:57:17;101527.75;;;16.20;79.13
71716;BME280;59568;52.128;5.434;2022-08-19T05:59:44;101522.94;;;16.22;79.36
71716;BME280;59568;52.128;5.434;2022-08-19T06:02:14;101524.19;;;16.25;79.85
71716;BME280;59568;52.128;5.434;2022-08-19T06:04:40;101514.88;;;16.27;80.09
71716;BME280;59568;52.128;5.434;2022-08-19T06:07:09;101510.25;;;16.33;81.08
71716;BME280;59568;52.128;5.434;2022-08-19T06:09:38;101523.44;;;16.42;80.15
71716;BME280;59568;52.128;5.434;2022-08-19T06:12:05;101526.09;;;16.50;80.64
71716;BME280;59568;52.128;5.434;2022-08-19T06:14:34;101520.38;;;16.57;79.81
71716;BME280;59568;52.128;5.434;2022-08-19T06:17:07;101515.88;;;16.66;79.55
71716;BME280;59568;52.128;5.434;2022-08-19T06:19:34;101529.84;;;16.75;79.73
71716;BME280;59568;52.128;5.434;2022-08-19T06:22:07;101523.22;;;16.87;80.83
71716;BME280;59568;52.128;5.434;2022-08-19T06:24:34;101523.06;;;17.01;80.17
71716;BME280;59568;52.128;5.434;2022-08-19T06:27:02;101519.91;;;17.16;81.27
71716;BME280;59568;52.128;5.434;2022-08-19T06:29:29;101521.16;;;17.27;80.06
71716;BME280;59568;52.128;5.434;2022-08-19T06:31:58;101525.47;;;17.41;80.67
71716;BME280;59568;52.128;5.434;2022-08-19T06:34:26;101525.28;;;17.54;82.21
71716;BME280;59568;52.128;5.434;2022-08-19T06:36:55;101523.84;;;17.66;83.14
71716;BME280;59568;52.128;5.434;2022-08-19T06:39:24;101526.28;;;17.80;83.24
71716;BME280;59568;52.128;5.434;2022-08-19T06:41:55;101533.59;;;17.91;82.73
71716;BME280;59568;52.128;5.434;2022-08-19T06:44:26;101536.31;;;18.04;83.17
71716;BME280;59568;52.128;5.434;2022-08-19T06:46:55;101529.25;;;18.16;82.48
71716;BME280;59568;52.128;5.434;2022-08-19T06:49:23;101532.31;;;18.27;83.87
71716;BME280;59568;52.128;5.434;2022-08-19T06:51:50;101526.81;;;18.32;83.02
71716;BME280;59568;52.128;5.434;2022-08-19T06:54:18;101525.09;;;18.36;83.60
71716;BME280;59568;52.128;5.434;2022-08-19T06:56:46;101538.59;;;18.44;83.92
71716;BME280;59568;52.128;5.434;2022-08-19T06:59:16;101534.22;;;18.48;83.82
71716;BME280;59568;52.128;5.434;2022-08-19T07:01:48;101531.34;;;18.53;83.63
71716;BME280;59568;52.128;5.434;2022-08-19T07:04:18;101534.34;;;18.51;84.62
71716;BME280;59568;52.128;5.434;2022-08-19T07:06:46;101541.16;;;18.52;83.56
71716;BME280;59568;52.128;5.434;2022-08-19T07:09:20;101542.84;;;18.57;83.28
71716;BME280;59568;52.128;5.434;2022-08-19T07:11:50;101542.06;;;18.56;84.04
71716;BME280;59568;52.128;5.434;2022-08-19T07:14:19;101539.56;;;18.60;83.73
71716;BME280;59568;52.128;5.434;2022-08-19T07:16:48;101543.13;;;18.64;84.10
71716;BME280;59568;52.128;5.434;2022-08-19T07:19:16;101548.69;;;18.71;83.88
71716;BME280;59568;52.128;5.434;2022-08-19T07:21:46;101547.53;;;18.81;83.70
71716;BME280;59568;52.128;5.434;2022-08-19T07:24:13;101550.13;;;18.90;83.21
71716;BME280;59568;52.128;5.434;2022-08-19T07:26:41;101545.72;;;18.94;83.05
71716;BME280;59568;52.128;5.434;2022-08-19T07:29:09;101546.41;;;19.03;82.99
71716;BME280;59568;52.128;5.434;2022-08-19T07:31:36;101543.34;;;19.13;83.45
71716;BME280;59568;52.128;5.434;2022-08-19T07:34:07;101547.38;;;19.20;82.66
71716;BME280;59568;52.128;5.434;2022-08-19T07:36:37;101545.28;;;19.25;82.61
71716;BME280;59568;52.128;5.434;2022-08-19T07:39:12;101550.06;;;19.32;82.51
71716;BME280;59568;52.128;5.434;2022-08-19T07:41:39;101550.50;;;19.34;82.41
71716;BME280;59568;52.128;5.434;2022-08-19T07:44:07;101549.19;;;19.40;82.76
71716;BME280;59568;52.128;5.434;2022-08-19T07:46:38;101546.31;;;19.45;82.43
71716;BME280;59568;52.128;5.434;2022-08-19T07:49:07;101553.84;;;19.55;82.22
71716;BME280;59568;52.128;5.434;2022-08-19T07:51:35;101555.44;;;19.69;82.64
71716;BME280;59568;52.128;5.434;2022-08-19T07:54:03;101556.66;;;19.71;80.65
71716;BME280;59568;52.128;5.434;2022-08-19T07:56:29;101560.19;;;19.75;80.81
71716;BME280;59568;52.128;5.434;2022-08-19T07:58:56;101556.13;;;19.78;80.75
71716;BME280;59568;52.128;5.434;2022-08-19T08:01:25;101559.31;;;19.84;79.26
71716;BME280;59568;52.128;5.434;2022-08-19T08:03:55;101567.72;;;19.86;79.62
71716;BME280;59568;52.128;5.434;2022-08-19T08:06:42;101571.72;;;19.92;78.96
71716;BME280;59568;52.128;5.434;2022-08-19T08:09:37;101574.81;;;19.94;79.20
71716;BME280;59568;52.128;5.434;2022-08-19T08:12:10;101580.91;;;20.07;78.39
71716;BME280;59568;52.128;5.434;2022-08-19T08:15:00;101583.44;;;20.03;78.08
71716;BME280;59568;52.128;5.434;2022-08-19T08:17:34;101589.09;;;20.26;79.38
71716;BME280;59568;52.128;5.434;2022-08-19T08:20:17;101592.38;;;20.60;76.89
71716;BME280;59568;52.128;5.434;2022-08-19T08:22:46;101589.16;;;20.67;76.87
71716;BME280;59568;52.128;5.434;2022-08-19T08:25:31;101588.13;;;20.84;76.15
71716;BME280;59568;52.128;5.434;2022-08-19T08:27:59;101601.19;;;20.89;76.48
71716;BME280;59568;52.128;5.434;2022-08-19T08:30:28;101597.22;;;20.83;76.14
71716;BME280;59568;52.128;5.434;2022-08-19T08:32:58;101604.06;;;20.84;76.63
71716;BME280;59568;52.128;5.434;2022-08-19T08:35:25;101612.56;;;20.89;76.70
71716;BME280;59568;52.128;5.434;2022-08-19T08:37:53;101617.75;;;20.98;76.55
71716;BME280;59568;52.128;5.434;2022-08-19T08:40:42;101620.03;;;21.12;76.59
71716;BME280;59568;52.128;5.434;2022-08-19T08:43:38;101620.41;;;21.26;74.75
71716;BME280;59568;52.128;5.434;2022-08-19T08:46:11;101619.13;;;21.64;73.52
71716;BME280;59568;52.128;5.434;2022-08-19T08:49:11;101616.66;;;21.56;73.34
71716;BME280;59568;52.128;5.434;2022-08-19T08:51:59;101614.09;;;21.59;73.86
71716;BME280;59568;52.128;5.434;2022-08-19T08:54:35;101613.72;;;21.61;72.95
71716;BME280;59568;52.128;5.434;2022-08-19T08:57:04;101606.88;;;21.60;73.21
71716;BME280;59568;52.128;5.434;2022-08-19T08:59:36;101605.50;;;21.66;73.80
71716;BME280;59568;52.128;5.434;2022-08-19T09:02:04;101610.41;;;21.80;73.53
71716;BME280;59568;52.128;5.434;2022-08-19T09:04:31;101611.50;;;21.94;73.31
71716;BME280;59568;52.128;5.434;2022-08-19T09:07:20;101612.13;;;22.04;72.74
71716;BME280;59568;52.128;5.434;2022-08-19T09:10:24;101609.78;;;21.86;72.45
71716;BME280;59568;52.128;5.434;2022-08-19T09:15:47;101606.78;;;22.36;71.27
71716;BME280;59568;52.128;5.434;2022-08-19T09:18:15;101610.81;;;22.65;71.11
71716;BME280;59568;52.128;5.434;2022-08-19T09:20:45;101608.66;;;22.90;70.24
71716;BME280;59568;52.128;5.434;2022-08-19T09:23:14;101611.25;;;23.25;70.14
71716;BME280;59568;52.128;5.434;2022-08-19T09:25:41;101614.81;;;23.52;68.32
71716;BME280;59568;52.128;5.434;2022-08-19T09:28:08;101618.53;;;23.71;68.17
71716;BME280;59568;52.128;5.434;2022-08-19T09:30:48;101611.53;;;23.86;67.67
71716;BME280;59568;52.128;5.434;2022-08-19T09:33:14;101609.13;;;23.77;67.74
71716;BME280;59568;52.128;5.434;2022-08-19T09:35:42;101614.22;;;23.63;68.55
71716;BME280;59568;52.128;5.434;2022-08-19T09:38:18;101608.41;;;23.80;67.34
71716;BME280;59568;52.128;5.434;2022-08-19T09:40:45;101609.38;;;23.72;68.12
71716;BME280;59568;52.128;5.434;2022-08-19T09:43:12;101624.31;;;23.53;67.97
71716;BME280;59568;52.128;5.434;2022-08-19T09:45:39;101612.59;;;23.58;69.08
71716;BME280;59568;52.128;5.434;2022-08-19T09:48:06;101615.56;;;23.99;67.52
71716;BME280;59568;52.128;5.434;2022-08-19T09:50:34;101607.38;;;23.88;65.83
71716;BME280;59568;52.128;5.434;2022-08-19T09:53:02;101612.88;;;23.76;66.19
71716;BME280;59568;52.128;5.434;2022-08-19T09:55:32;101618.53;;;23.71;68.56
71716;BME280;59568;52.128;5.434;2022-08-19T09:58:00;101616.78;;;23.79;67.93
71716;BME280;59568;52.128;5.434;2022-08-19T10:00:27;101618.13;;;23.69;67.92
71716;BME280;59568;52.128;5.434;2022-08-19T10:02:54;101613.41;;;23.62;67.36
71716;BME280;59568;52.128;5.434;2022-08-19T10:05:21;101613.47;;;23.66;68.70
71716;BME280;59568;52.128;5.434;2022-08-19T10:08:07;101605.22;;;24.21;65.07
71716;BME280;59568;52.128;5.434;2022-08-19T10:10:42;101614.88;;;24.56;61.62
71716;BME280;59568;52.128;5.434;2022-08-19T10:13:14;101621.47;;;24.96;65.14
71716;BME280;59568;52.128;5.434;2022-08-19T10:15:41;101616.53;;;25.35;63.08
71716;BME280;59568;52.128;5.434;2022-08-19T10:18:13;101615.72;;;25.31;61.86
71716;BME280;59568;52.128;5.434;2022-08-19T10:20:39;101614.03;;;25.16;62.81
71716;BME280;59568;52.128;5.434;2022-08-19T10:23:09;101610.91;;;25.10;62.30
71716;BME280;59568;52.128;5.434;2022-08-19T10:25:35;101616.31;;;24.80;61.80
71716;BME280;59568;52.128;5.434;2022-08-19T10:28:04;101614.72;;;24.75;64.63
71716;BME280;59568;52.128;5.434;2022-08-19T10:30:36;101613.81;;;25.28;63.46
71716;BME280;59568;52.128;5.434;2022-08-19T10:33:03;101616.53;;;25.35;63.68
71716;BME280;59568;52.128;5.434;2022-08-19T10:35:36;101611.13;;;25.28;63.68
71716;BME280;59568;52.128;5.434;2022-08-19T10:38:21;101615.72;;;25.31;63.04
71716;BME280;59568;52.128;5.434;2022-08-19T10:40:57;101611.88;;;25.28;65.07
71716;BME280;59568;52.128;5.434;2022-08-19T10:43:23;101609.16;;;25.25;61.92
71716;BME280;59568;52.128;5.434;2022-08-19T10:45:54;101611.34;;;25.16;63.70
71716;BME280;59568;52.128;5.434;2022-08-19T10:48:25;101602.88;;;25.44;62.28
71716;BME280;59568;52.128;5.434;2022-08-19T10:50:52;101603.97;;;25.84;62.64
71716;BME280;59568;52.128;5.434;2022-08-19T10:53:49;101598.44;;;26.18;60.69
71716;BME280;59568;52.128;5.434;2022-08-19T10:56:17;101602.06;;;26.47;62.08
71716;BME280;59568;52.128;5.434;2022-08-19T10:59:03;101596.44;;;26.77;59.83
71716;BME280;59568;52.128;5.434;2022-08-19T11:01:31;101590.03;;;27.10;59.67
71716;BME280;59568;52.128;5.434;2022-08-19T11:04:01;101595.34;;;26.96;59.17
71716;BME280;59568;52.128;5.434;2022-08-19T11:06:28;101589.94;;;26.82;58.39
71716;BME280;59568;52.128;5.434;2022-08-19T11:08:56;101582.25;;;26.69;59.29
71716;BME280;59568;52.128;5.434;2022-08-19T11:11:23;101586.88;;;26.80;61.38
71716;BME280;59568;52.128;5.434;2022-08-19T11:13:49;101588.03;;;26.79;60.74
71716;BME280;59568;52.128;5.434;2022-08-19T11:16:21;101588.47;;;26.95;60.02
71716;BME280;59568;52.128;5.434;2022-08-19T11:18:52;101596.13;;;26.93;59.93
71716;BME280;59568;52.128;5.434;2022-08-19T11:21:22;101588.38;;;26.70;59.26
71716;BME280;59568;52.128;5.434;2022-08-19T11:23:52;101587.53;;;26.55;60.19
71716;BME280;59568;52.128;5.434;2022-08-19T11:26:20;101585.53;;;26.34;61.89
71716;BME280;59568;52.128;5.434;2022-08-19T11:28:47;101581.25;;;26.19;60.94
71716;BME280;59568;52.128;5.434;2022-08-19T11:31:17;101575.84;;;26.08;61.75
71716;BME280;59568;52.128;5.434;2022-08-19T11:33:45;101573.00;;;26.56;63.28
71716;BME280;59568;52.128;5.434;2022-08-19T11:36:13;101569.28;;;27.00;60.71
71716;BME280;59568;52.128;5.434;2022-08-19T11:38:41;101576.66;;;27.32;61.62
71716;BME280;59568;52.128;5.434;2022-08-19T11:41:08;101570.91;;;27.44;58.08
71716;BME280;59568;52.128;5.434;2022-08-19T11:43:36;101569.00;;;27.45;59.65
71716;BME280;59568;52.128;5.434;2022-08-19T11:46:05;101571.66;;;27.77;59.76
71716;BME280;59568;52.128;5.434;2022-08-19T11:48:34;101569.31;;;27.86;59.25
71716;BME280;59568;52.128;5.434;2022-08-19T11:51:05;101568.59;;;27.75;59.75
71716;BME280;59568;52.128;5.434;2022-08-19T11:53:36;101576.66;;;27.72;56.16
71716;BME280;59568;52.128;5.434;2022-08-19T11:56:04;101572.81;;;27.29;60.68
71716;BME280;59568;52.128;5.434;2022-08-19T11:58:32;101572.84;;;27.33;61.01
71716;BME280;59568;52.128;5.434;2022-08-19T12:00:58;101570.13;;;27.65;59.40
71716;BME280;59568;52.128;5.434;2022-08-19T12:03:25;101570.13;;;27.76;60.19
71716;BME280;59568;52.128;5.434;2022-08-19T12:05:52;101568.22;;;27.73;56.67
71716;BME280;59568;52.128;5.434;2022-08-19T12:08:19;101568.59;;;27.68;60.55
71716;BME280;59568;52.128;5.434;2022-08-19T12:10:45;101573.56;;;27.77;59.19
71716;BME280;59568;52.128;5.434;2022-08-19T12:13:13;101575.50;;;27.62;60.85
71716;BME280;59568;52.128;5.434;2022-08-19T12:15:46;101580.13;;;27.43;60.38
71716;BME280;59568;52.128;5.434;2022-08-19T12:18:14;101573.19;;;27.24;61.22
71716;BME280;59568;52.128;5.434;2022-08-19T12:20:42;101576.97;;;26.98;60.19
71716;BME280;59568;52.128;5.434;2022-08-19T12:23:10;101580.38;;;26.81;61.95
71716;BME280;59568;52.128;5.434;2022-08-19T12:25:37;101572.22;;;26.56;62.72
71716;BME280;59568;52.128;5.434;2022-08-19T12:28:09;101579.81;;;26.39;64.22
71716;BME280;59568;52.128;5.434;2022-08-19T12:30:37;101570.16;;;26.20;62.94
71716;BME280;59568;52.128;5.434;2022-08-19T12:33:04;101574.66;;;26.02;63.12
71716;BME280;59568;52.128;5.434;2022-08-19T12:35:30;101576.44;;;25.87;64.87
71716;BME280;59568;52.128;5.434;2022-08-19T12:37:58;101571.75;;;25.73;63.72
71716;BME280;59568;52.128;5.434;2022-08-19T12:40:26;101583.75;;;25.45;63.97
71716;BME280;59568;52.128;5.434;2022-08-19T12:42:53;101584.03;;;25.33;64.50
71716;BME280;59568;52.128;5.434;2022-08-19T12:45:20;101575.84;;;25.19;64.07
71716;BME280;59568;52.128;5.434;2022-08-19T12:47:48;101578.88;;;25.14;65.37
71716;BME280;59568;52.128;5.434;2022-08-19T12:50:20;101577.28;;;25.09;64.73
71716;BME280;59568;52.128;5.434;2022-08-19T12:52:48;101581.94;;;25.19;65.88
71716;BME280;59568;52.128;5.434;2022-08-19T12:55:14;101574.59;;;25.46;66.14
71716;BME280;59568;52.128;5.434;2022-08-19T12:57:41;101565.81;;;25.94;63.60
71716;BME280;59568;52.128;5.434;2022-08-19T13:00:17;101558.13;;;25.93;62.42
71716;BME280;59568;52.128;5.434;2022-08-19T13:02:45;101558.41;;;25.80;63.19
71716;BME280;59568;52.128;5.434;2022-08-19T13:05:14;101561.41;;;25.68;64.83
71716;BME280;59568;52.128;5.434;2022-08-19T13:07:42;101553.31;;;25.61;64.21
71716;BME280;59568;52.128;5.434;2022-08-19T13:10:12;101570.06;;;25.54;64.24
71716;BME280;59568;52.128;5.434;2022-08-19T13:12:39;101561.59;;;25.45;65.00
71716;BME280;59568;52.128;5.434;2022-08-19T13:15:07;101563.03;;;25.35;65.04
71716;BME280;59568;52.128;5.434;2022-08-19T13:17:37;101568.31;;;25.28;66.19